Time;durP1;ratioP1;P1;durP2;ratioP2;P2;SDS_P1;SDS_P2;PMS_P1;PMS_P2;Temp;Humidity;BMP_temperature;BMP_pressure;BME280_temperature;BME280_humidity;BME280_pressure;Samples;Min_cycle;Max_cycle;Signal;HPM_P1;HPM_P2
2021/11/24 00:01:13;;;;;;;1999.90;999.90;;;;;;;;;;5008373;28;20092;-83
2021/11/24 00:03:39;;;;;;;1999.90;999.90;;;;;;;;;;4984409;28;20030;-83
2021/11/24 00:06:04;;;;;;;1999.90;999.90;;;;;;;;;;5001474;28;20042;-83
2021/11/24 00:08:29;;;;;;;1999.90;999.90;;;;;;;;;;4987754;28;20056;-82
2021/11/24 00:10:55;;;;;;;1999.90;999.90;;;;;;;;;;4986697;28;20056;-82
2021/11/24 00:13:21;;;;;;;1999.90;999.90;;;;;;;;;;5003700;28;20531;-83
2021/11/24 00:15:46;;;;;;;1999.90;999.90;;;;;;;;;;5020113;28;20037;-83
2021/11/24 00:18:11;;;;;;;1999.90;999.90;;;;;;;;;;4984726;28;20515;-83
2021/11/24 00:20:37;;;;;;;1999.90;999.90;;;;;;;;;;4984760;28;20030;-82
2021/11/24 00:23:03;;;;;;;1999.90;999.90;;;;;;;;;;5020018;28;20614;-83
2021/11/24 00:25:28;;;;;;;1999.90;999.90;;;;;;;;;;4983928;28;20061;-82
2021/11/24 00:27:54;;;;;;;1999.90;999.90;;;;;;;;;;5000691;28;20176;-82
2021/11/24 00:30:20;;;;;;;1999.90;999.90;;;;;;;;;;4984383;28;20037;-83
2021/11/24 00:32:45;;;;;;;1999.90;999.90;;;;;;;;;;5000205;28;20034;-82
2021/11/24 00:35:11;;;;;;;1999.90;999.90;;;;;;;;;;5000688;28;20088;-83
2021/11/24 00:37:36;;;;;;;1999.90;999.90;;;;;;;;;;5000598;28;20058;-82
2021/11/24 00:40:04;;;;;;;1999.90;999.90;;;;;;;;;;5002849;28;20041;-82
2021/11/24 00:42:29;;;;;;;1999.90;999.90;;;;;;;;;;5003782;28;20053;-83
2021/11/24 00:44:54;;;;;;;1999.90;999.90;;;;;;;;;;5019947;28;20041;-82
2021/11/24 00:47:20;;;;;;;1999.90;999.90;;;;;;;;;;5003948;28;20038;-83
2021/11/24 00:49:45;;;;;;;1999.90;999.90;;;;;;;;;;5019944;28;20048;-82
2021/11/24 00:52:11;;;;;;;1999.90;999.90;;;;;;;;;;5016089;28;20076;-83
2021/11/24 00:54:36;;;;;;;1999.90;999.90;;;;;;;;;;4999926;28;20046;-82
2021/11/24 00:57:02;;;;;;;1999.90;999.90;;;;;;;;;;4984200;28;20045;-84
2021/11/24 00:59:28;;;;;;;1999.90;999.90;;;;;;;;;;5000160;28;20030;-83
2021/11/24 01:01:54;;;;;;;1999.90;999.90;;;;;;;;;;5003838;28;20039;-85
2021/11/24 01:04:20;;;;;;;1999.90;999.90;;;;;;;;;;5001109;28;20037;-82
2021/11/24 01:06:45;;;;;;;1999.90;999.90;;;;;;;;;;4995642;28;20420;-82
2021/11/24 01:09:11;;;;;;;1999.90;999.90;;;;;;;;;;4998214;28;20052;-82
2021/11/24 01:11:36;;;;;;;1999.90;999.90;;;;;;;;;;5000055;28;20107;-82
2021/11/24 01:14:02;;;;;;;1999.90;999.90;;;;;;;;;;5000581;28;20033;-83
2021/11/24 01:16:28;;;;;;;1999.90;999.90;;;;;;;;;;4984500;28;20133;-83
2021/11/24 01:18:54;;;;;;;1999.90;999.90;;;;;;;;;;4984220;28;20440;-82
2021/11/24 01:21:19;;;;;;;1999.90;999.90;;;;;;;;;;5016227;28;20026;-83
2021/11/24 01:23:46;;;;;;;1999.90;999.90;;;;;;;;;;5000098;28;20030;-82
2021/11/24 01:26:12;;;;;;;1999.90;999.90;;;;;;;;;;4984133;28;20143;-82
2021/11/24 01:28:37;;;;;;;1999.90;999.90;;;;;;;;;;4999469;28;20492;-82
2021/11/24 01:31:03;;;;;;;1999.90;999.90;;;;;;;;;;5016248;28;20022;-82
2021/11/24 01:33:28;;;;;;;1999.90;999.90;;;;;;;;;;5016115;28;20439;-82
2021/11/24 01:35:54;;;;;;;1999.90;999.90;;;;;;;;;;4983910;28;20056;-82
2021/11/24 01:38:19;;;;;;;1999.90;999.90;;;;;;;;;;5015700;28;20060;-82
2021/11/24 01:40:45;;;;;;;1999.90;999.90;;;;;;;;;;5016177;28;20067;-82
2021/11/24 01:43:11;;;;;;;1999.90;999.90;;;;;;;;;;4999937;28;20038;-82
2021/11/24 01:45:37;;;;;;;1999.90;999.90;;;;;;;;;;5016412;28;20060;-84
2021/11/24 01:48:02;;;;;;;1999.90;999.90;;;;;;;;;;4999694;28;20393;-82
2021/11/24 01:50:29;;;;;;;1999.90;999.90;;;;;;;;;;4999665;28;20022;-82
2021/11/24 01:52:54;;;;;;;1999.90;999.90;;;;;;;;;;4982935;28;20068;-83
2021/11/24 01:55:20;;;;;;;1999.90;999.90;;;;;;;;;;5015910;28;20037;-82
2021/11/24 01:57:48;;;;;;;1999.90;999.90;;;;;;;;;;4998894;28;20034;-82
2021/11/24 02:00:15;;;;;;;1999.90;999.90;;;;;;;;;;4983576;28;20400;-82
2021/11/24 02:02:40;;;;;;;1999.90;999.90;;;;;;;;;;4999308;28;20458;-82
2021/11/24 02:05:06;;;;;;;1999.90;999.90;;;;;;;;;;5009013;28;20132;-81
2021/11/24 02:07:31;;;;;;;1999.90;999.90;;;;;;;;;;4982011;28;20045;-81
2021/11/24 02:09:57;;;;;;;1999.90;999.90;;;;;;;;;;4979873;28;20038;-82
2021/11/24 02:12:22;;;;;;;1999.90;999.90;;;;;;;;;;4997415;28;20403;-82
2021/11/24 02:14:48;;;;;;;1999.90;999.90;;;;;;;;;;4982739;28;20021;-82
2021/11/24 02:17:15;;;;;;;1999.90;999.90;;;;;;;;;;4998071;28;20048;-82
2021/11/24 02:19:41;;;;;;;1999.90;999.90;;;;;;;;;;4999511;28;20104;-82
2021/11/24 02:22:08;;;;;;;1999.90;999.90;;;;;;;;;;4998962;28;20052;-81
2021/11/24 02:24:34;;;;;;;1999.90;999.90;;;;;;;;;;4999213;28;20097;-82
2021/11/24 02:27:01;;;;;;;1999.90;999.90;;;;;;;;;;4999137;28;20042;-82
2021/11/24 02:29:27;;;;;;;1999.90;999.90;;;;;;;;;;4984027;28;20084;-82
2021/11/24 02:31:54;;;;;;;1999.90;999.90;;;;;;;;;;4998746;28;20041;-82
2021/11/24 02:34:20;;;;;;;1999.90;999.90;;;;;;;;;;4998711;28;20585;-82
2021/11/24 02:36:45;;;;;;;1999.90;999.90;;;;;;;;;;5014290;28;20061;-82
2021/11/24 02:39:11;;;;;;;1999.90;999.90;;;;;;;;;;5015329;28;20038;-82
2021/11/24 02:41:38;;;;;;;1999.90;999.90;;;;;;;;;;4982435;28;20034;-82
2021/11/24 02:44:20;;;;;;;1999.90;999.90;;;;;;;;;;5014951;28;20099;-82
2021/11/24 02:46:45;;;;;;;1999.90;999.90;;;;;;;;;;5031696;28;20109;-83
2021/11/24 02:49:11;;;;;;;1999.90;999.90;;;;;;;;;;5014908;28;20116;-82
2021/11/24 02:51:37;;;;;;;1999.90;999.90;;;;;;;;;;4982191;28;20496;-82
2021/11/24 02:54:03;;;;;;;1999.90;999.90;;;;;;;;;;5014877;28;20035;-81
2021/11/24 02:56:28;;;;;;;1999.90;999.90;;;;;;;;;;5014966;28;20045;-82
2021/11/24 02:58:54;;;;;;;1999.90;999.90;;;;;;;;;;5010811;28;20116;-82
2021/11/24 03:01:19;;;;;;;1999.90;999.90;;;;;;;;;;5006870;28;20459;-82
2021/11/24 03:03:45;;;;;;;1999.90;999.90;;;;;;;;;;4998402;28;20060;-82
2021/11/24 03:06:10;;;;;;;1999.90;999.90;;;;;;;;;;5014492;28;20037;-82
2021/11/24 03:08:36;;;;;;;1999.90;999.90;;;;;;;;;;4998026;28;20089;-80
2021/11/24 03:11:01;;;;;;;1999.90;999.90;;;;;;;;;;4981607;28;20041;-80
2021/11/24 03:13:27;;;;;;;1999.90;999.90;;;;;;;;;;4994634;28;20038;-80
2021/11/24 03:15:52;;;;;;;1999.90;999.90;;;;;;;;;;4978611;28;20037;-80
2021/11/24 03:18:18;;;;;;;1999.90;999.90;;;;;;;;;;4978667;28;20112;-80
2021/11/24 03:20:43;;;;;;;1999.90;999.90;;;;;;;;;;4978392;28;20121;-80
2021/11/24 03:23:09;;;;;;;1999.90;999.90;;;;;;;;;;4978480;28;20459;-80
2021/11/24 03:25:35;;;;;;;1999.90;999.90;;;;;;;;;;5011096;28;20056;-80
2021/11/24 03:28:00;;;;;;;1999.90;999.90;;;;;;;;;;4994380;28;20409;-81
2021/11/24 03:30:26;;;;;;;1999.90;999.90;;;;;;;;;;4980476;28;20040;-81
2021/11/24 03:32:52;;;;;;;1999.90;999.90;;;;;;;;;;4979134;28;20042;-81
2021/11/24 03:35:18;;;;;;;1999.90;999.90;;;;;;;;;;5012476;28;20037;-81
2021/11/24 03:37:44;;;;;;;1999.90;999.90;;;;;;;;;;5012546;28;20502;-81
2021/11/24 03:40:11;;;;;;;1999.90;999.90;;;;;;;;;;5012683;28;20036;-81
2021/11/24 03:42:36;;;;;;;1999.90;999.90;;;;;;;;;;4980184;28;20528;-81
2021/11/24 03:45:02;;;;;;;1999.90;999.90;;;;;;;;;;5012296;28;20072;-81
2021/11/24 03:47:28;;;;;;;1999.90;999.90;;;;;;;;;;5012422;28;20029;-81
2021/11/24 03:49:53;;;;;;;1999.90;999.90;;;;;;;;;;4995700;28;20698;-82
2021/11/24 03:52:19;;;;;;;1999.90;999.90;;;;;;;;;;4996539;28;20056;-81
2021/11/24 03:54:44;;;;;;;1999.90;999.90;;;;;;;;;;4995829;28;20063;-81
2021/11/24 03:57:10;;;;;;;1999.90;999.90;;;;;;;;;;4979727;28;20041;-81
2021/11/24 03:59:35;;;;;;;1999.90;999.90;;;;;;;;;;4979765;28;20688;-81
2021/11/24 04:02:01;;;;;;;1999.90;999.90;;;;;;;;;;5013340;28;20033;-81
2021/11/24 04:04:26;;;;;;;1999.90;999.90;;;;;;;;;;5014011;28;20025;-82
2021/11/24 04:06:52;;;;;;;1999.90;999.90;;;;;;;;;;4997553;28;20049;-82
2021/11/24 04:09:17;;;;;;;1999.90;999.90;;;;;;;;;;4981104;28;20044;-82
2021/11/24 04:11:43;;;;;;;1999.90;999.90;;;;;;;;;;4997295;28;20120;-82
2021/11/24 04:14:09;;;;;;;1999.90;999.90;;;;;;;;;;4981170;28;20120;-82
2021/11/24 04:16:35;;;;;;;1999.90;999.90;;;;;;;;;;4981245;28;20042;-81
2021/11/24 04:19:01;;;;;;;1999.90;999.90;;;;;;;;;;5014040;28;20033;-81
2021/11/24 04:21:26;;;;;;;1999.90;999.90;;;;;;;;;;4997224;28;20102;-81
2021/11/24 04:23:52;;;;;;;1999.90;999.90;;;;;;;;;;4977936;28;20492;-83
2021/11/24 04:26:17;;;;;;;1999.90;999.90;;;;;;;;;;4994061;28;20369;-81
2021/11/24 04:28:43;;;;;;;1999.90;999.90;;;;;;;;;;4994274;28;20030;-81
2021/11/24 04:31:09;;;;;;;1999.90;999.90;;;;;;;;;;4980829;28;20033;-81
2021/11/24 04:33:35;;;;;;;1999.90;999.90;;;;;;;;;;4996763;28;20033;-81
2021/11/24 04:36:01;;;;;;;1999.90;999.90;;;;;;;;;;4981167;28;20042;-81
2021/11/24 04:38:27;;;;;;;1999.90;999.90;;;;;;;;;;5013760;28;20144;-81
2021/11/24 04:40:53;;;;;;;1999.90;999.90;;;;;;;;;;5017014;28;20075;-81
2021/11/24 04:43:20;;;;;;;1999.90;999.90;;;;;;;;;;4984911;28;20033;-81
2021/11/24 04:45:47;;;;;;;1999.90;999.90;;;;;;;;;;5017119;28;20050;-81
2021/11/24 04:48:12;;;;;;;1999.90;999.90;;;;;;;;;;5001342;28;20414;-81
2021/11/24 04:50:37;;;;;;;1999.90;999.90;;;;;;;;;;5000720;28;20029;-80
2021/11/24 04:53:03;;;;;;;1999.90;999.90;;;;;;;;;;5000747;28;20034;-81
2021/11/24 04:55:30;;;;;;;1999.90;999.90;;;;;;;;;;4984580;28;20038;-79
2021/11/24 04:57:56;;;;;;;1999.90;999.90;;;;;;;;;;4984946;28;20120;-81
2021/11/24 05:00:22;;;;;;;1999.90;999.90;;;;;;;;;;4996657;28;20542;-81
2021/11/24 05:02:51;;;;;;;1999.90;999.90;;;;;;;;;;4997594;28;20484;-81
2021/11/24 05:05:22;;;;;;;1999.90;999.90;;;;;;;;;;4997772;28;20042;-80
2021/11/24 05:07:47;;;;;;;1999.90;999.90;;;;;;;;;;5001305;28;20033;-80
2021/11/24 05:10:13;;;;;;;1999.90;999.90;;;;;;;;;;4984040;28;20038;-81
2021/11/24 05:12:38;;;;;;;1999.90;999.90;;;;;;;;;;4996523;28;20042;-82
2021/11/24 05:15:05;;;;;;;1999.90;999.90;;;;;;;;;;4964484;28;20489;-81
2021/11/24 05:17:32;;;;;;;1999.90;999.90;;;;;;;;;;4964965;28;20108;-81
2021/11/24 05:19:57;;;;;;;1999.90;999.90;;;;;;;;;;4980565;28;20041;-79
2021/11/24 05:22:24;;;;;;;1999.90;999.90;;;;;;;;;;4984978;28;20033;-82
2021/11/24 05:24:50;;;;;;;1999.90;999.90;;;;;;;;;;4983901;28;20523;-81
2021/11/24 05:27:16;;;;;;;1999.90;999.90;;;;;;;;;;5000154;28;20045;-81
2021/11/24 05:29:42;;;;;;;1999.90;999.90;;;;;;;;;;5015928;28;20132;-81
2021/11/24 05:32:08;;;;;;;1999.90;999.90;;;;;;;;;;4999940;28;20128;-81
2021/11/24 05:34:33;;;;;;;1999.90;999.90;;;;;;;;;;4999941;28;20043;-80
2021/11/24 05:36:59;;;;;;;1999.90;999.90;;;;;;;;;;4983708;28;20040;-82
2021/11/24 05:39:25;;;;;;;1999.90;999.90;;;;;;;;;;4995795;28;20129;-83
2021/11/24 05:41:50;;;;;;;1999.90;999.90;;;;;;;;;;5000231;28;20040;-81
2021/11/24 05:44:25;;;;;;;1999.90;999.90;;;;;;;;;;5013526;28;20034;-82
2021/11/24 05:47:00;;;;;;;1999.90;999.90;;;;;;;;;;4999758;28;20086;-82
2021/11/24 05:49:26;;;;;;;1999.90;999.90;;;;;;;;;;4999486;28;20034;-81
2021/11/24 05:51:53;;;;;;;1999.90;999.90;;;;;;;;;;4983155;28;20040;-82
2021/11/24 05:54:18;;;;;;;1999.90;999.90;;;;;;;;;;4999778;28;20046;-82
2021/11/24 05:56:45;;;;;;;1999.90;999.90;;;;;;;;;;4996288;28;20057;-82
2021/11/24 05:59:11;;;;;;;1999.90;999.90;;;;;;;;;;4992690;28;20041;-82
2021/11/24 06:01:36;;;;;;;1999.90;999.90;;;;;;;;;;4999708;28;20068;-82
2021/11/24 06:04:03;;;;;;;1999.90;999.90;;;;;;;;;;4999451;28;20041;-82
2021/11/24 06:06:28;;;;;;;1999.90;999.90;;;;;;;;;;5015909;28;20037;-80
2021/11/24 06:08:54;;;;;;;1999.90;999.90;;;;;;;;;;4982972;28;20139;-81
2021/11/24 06:11:19;;;;;;;1999.90;999.90;;;;;;;;;;4985314;28;20029;-83
2021/11/24 06:13:45;;;;;;;1999.90;999.90;;;;;;;;;;4998477;28;20052;-83
2021/11/24 06:16:10;;;;;;;1999.90;999.90;;;;;;;;;;4998990;28;20046;-83
2021/11/24 06:18:36;;;;;;;1999.90;999.90;;;;;;;;;;5015682;28;20041;-83
2021/11/24 06:21:01;;;;;;;1999.90;999.90;;;;;;;;;;5014827;28;20522;-86
2021/11/24 06:23:27;;;;;;;1999.90;999.90;;;;;;;;;;5015786;28;20455;-82
2021/11/24 06:25:52;;;;;;;1999.90;999.90;;;;;;;;;;4999177;28;20064;-84
2021/11/24 06:28:18;;;;;;;1999.90;999.90;;;;;;;;;;4999005;28;20128;-84
2021/11/24 06:30:44;;;;;;;1999.90;999.90;;;;;;;;;;4998946;28;20047;-84
2021/11/24 06:33:10;;;;;;;1999.90;999.90;;;;;;;;;;4998976;28;20037;-83
2021/11/24 06:35:36;;;;;;;1999.90;999.90;;;;;;;;;;4999061;28;20086;-84
2021/11/24 06:38:02;;;;;;;1999.90;999.90;;;;;;;;;;4999180;28;20148;-84
2021/11/24 06:40:28;;;;;;;1999.90;999.90;;;;;;;;;;5016339;28;20056;-84
2021/11/24 06:42:55;;;;;;;1999.90;999.90;;;;;;;;;;4998490;28;20032;-84
2021/11/24 06:45:20;;;;;;;1999.90;999.90;;;;;;;;;;5014787;28;20030;-84
2021/11/24 06:47:46;;;;;;;1999.90;999.90;;;;;;;;;;5014703;28;20205;-84
2021/11/24 06:50:12;;;;;;;1999.90;999.90;;;;;;;;;;4982245;28;20567;-83
2021/11/24 06:52:37;;;;;;;1999.90;999.90;;;;;;;;;;5014587;28;20037;-86
2021/11/24 06:55:04;;;;;;;1999.90;999.90;;;;;;;;;;5014385;28;20033;-87
2021/11/24 06:57:30;;;;;;;1999.90;999.90;;;;;;;;;;4982031;28;20042;-85
2021/11/24 06:59:56;;;;;;;1999.90;999.90;;;;;;;;;;4998529;28;20076;-84
2021/11/24 07:02:21;;;;;;;1999.90;999.90;;;;;;;;;;4978117;28;20030;-85
2021/11/24 07:04:47;;;;;;;1999.90;999.90;;;;;;;;;;4997680;28;20060;-85
2021/11/24 07:07:12;;;;;;;1999.90;999.90;;;;;;;;;;4974052;28;20041;-85
2021/11/24 07:09:40;;;;;;;1999.90;999.90;;;;;;;;;;4995201;28;20042;-86
2021/11/24 07:12:07;;;;;;;1999.90;999.90;;;;;;;;;;5001472;28;20064;-87
2021/11/24 07:14:34;;;;;;;1999.90;999.90;;;;;;;;;;4998297;28;20033;-88
2021/11/24 07:17:00;;;;;;;1999.90;999.90;;;;;;;;;;4979267;28;20025;-89
2021/11/24 07:19:29;;;;;;;1999.90;999.90;;;;;;;;;;4999016;28;20034;-90
2021/11/24 07:21:57;;;;;;;1999.90;999.90;;;;;;;;;;4975100;28;20029;-91
2021/11/24 07:24:25;;;;;;;1999.90;999.90;;;;;;;;;;4983086;28;20041;-89
2021/11/24 07:26:50;;;;;;;1999.90;999.90;;;;;;;;;;5015649;28;20062;-88
2021/11/24 07:29:20;;;;;;;1999.90;999.90;;;;;;;;;;4999241;28;20037;-90
2021/11/24 07:31:48;;;;;;;1999.90;999.90;;;;;;;;;;5015483;28;20419;-91
2021/11/24 07:34:17;;;;;;;1999.90;999.90;;;;;;;;;;4998941;28;20069;-91
2021/11/24 07:36:44;;;;;;;1999.90;999.90;;;;;;;;;;4998531;28;20041;-87
2021/11/24 07:39:09;;;;;;;1999.90;999.90;;;;;;;;;;4998233;28;20030;-88
2021/11/24 07:41:35;;;;;;;1999.90;999.90;;;;;;;;;;4979667;28;20034;-83
2021/11/24 07:44:02;;;;;;;1999.90;999.90;;;;;;;;;;4995693;28;20121;-91
2021/11/24 07:46:28;;;;;;;1999.90;999.90;;;;;;;;;;4979973;28;20498;-91
2021/11/24 07:48:57;;;;;;;1999.90;999.90;;;;;;;;;;4996997;28;20058;-93
2021/11/24 07:51:26;;;;;;;1999.90;999.90;;;;;;;;;;4998727;28;20037;-93
2021/11/24 07:53:57;;;;;;;1999.90;999.90;;;;;;;;;;5014881;28;20029;-92
2021/11/24 07:56:27;;;;;;;1999.90;999.90;;;;;;;;;;4999071;28;20037;-93
2021/11/24 07:58:54;;;;;;;1999.90;999.90;;;;;;;;;;4998042;28;20043;-93
2021/11/24 08:01:20;;;;;;;1999.90;999.90;;;;;;;;;;4998625;28;20033;-93
2021/11/24 08:03:46;;;;;;;1999.90;999.90;;;;;;;;;;4982270;28;20037;-93
2021/11/24 08:06:14;;;;;;;1999.90;999.90;;;;;;;;;;4982911;28;20033;-92
2021/11/24 08:08:40;;;;;;;1999.90;999.90;;;;;;;;;;4998467;28;20040;-93
2021/11/24 08:11:08;;;;;;;1999.90;999.90;;;;;;;;;;4982880;28;20041;-93
2021/11/24 08:13:37;;;;;;;1999.90;999.90;;;;;;;;;;4984270;28;20041;-92
2021/11/24 08:16:06;;;;;;;1999.90;999.90;;;;;;;;;;5002864;28;20048;-93
2021/11/24 08:18:34;;;;;;;1999.90;999.90;;;;;;;;;;4986736;28;20416;-93
2021/11/24 08:21:03;;;;;;;1999.90;999.90;;;;;;;;;;4986869;28;20040;-93
2021/11/24 08:23:29;;;;;;;1999.90;999.90;;;;;;;;;;4986510;28;20084;-93
2021/11/24 08:25:56;;;;;;;1999.90;999.90;;;;;;;;;;4986697;28;20116;-94
2021/11/24 08:28:28;;;;;;;1999.90;999.90;;;;;;;;;;4986534;28;20040;-93
2021/11/24 08:30:56;;;;;;;1999.90;999.90;;;;;;;;;;4986705;28;20030;-93
2021/11/24 08:33:25;;;;;;;1999.90;999.90;;;;;;;;;;5002875;28;20041;-94
2021/11/24 08:35:51;;;;;;;1999.90;999.90;;;;;;;;;;4986344;28;20551;-91
2021/11/24 08:38:17;;;;;;;1999.90;999.90;;;;;;;;;;4985845;28;20156;-92
2021/11/24 08:40:45;;;;;;;1999.90;999.90;;;;;;;;;;4986245;28;20049;-93
2021/11/24 08:43:13;;;;;;;1999.90;999.90;;;;;;;;;;5002633;28;20499;-92
2021/11/24 08:45:38;;;;;;;1999.90;999.90;;;;;;;;;;4986158;28;20100;-93
2021/11/24 08:48:06;;;;;;;1999.90;999.90;;;;;;;;;;4986722;28;20435;-92
2021/11/24 08:50:35;;;;;;;1999.90;999.90;;;;;;;;;;4986240;28;20037;-93
2021/11/24 08:53:03;;;;;;;1999.90;999.90;;;;;;;;;;5001927;28;20026;-93
2021/11/24 08:55:32;;;;;;;1999.90;999.90;;;;;;;;;;5002237;28;20044;-93
2021/11/24 08:58:00;;;;;;;1999.90;999.90;;;;;;;;;;4985705;28;20065;-93
2021/11/24 09:00:28;;;;;;;1999.90;999.90;;;;;;;;;;4985728;28;20041;-92
2021/11/24 09:02:57;;;;;;;1999.90;999.90;;;;;;;;;;5001854;28;20087;-92
2021/11/24 09:05:22;;;;;;;1999.90;999.90;;;;;;;;;;5002306;28;20049;-93
2021/11/24 09:07:52;;;;;;;1999.90;999.90;;;;;;;;;;5001780;28;20096;-93
2021/11/24 09:10:20;;;;;;;1999.90;999.90;;;;;;;;;;5001903;28;20046;-94
2021/11/24 09:12:49;;;;;;;1999.90;999.90;;;;;;;;;;4985389;28;20025;-93
2021/11/24 09:15:15;;;;;;;1999.90;999.90;;;;;;;;;;5001677;28;20530;-94
2021/11/24 09:17:44;;;;;;;1999.90;999.90;;;;;;;;;;4985796;28;20041;-93
2021/11/24 09:20:10;;;;;;;1999.90;999.90;;;;;;;;;;5017792;28;20516;-93
2021/11/24 09:22:42;;;;;;;1999.90;999.90;;;;;;;;;;4998207;28;20516;-89
2021/11/24 09:25:10;;;;;;;1999.90;999.90;;;;;;;;;;4981857;28;20045;-88
2021/11/24 09:30:36;;;;;;;1999.90;999.90;;;;;;;;;;4992156;28;20049;-88
2021/11/24 09:33:01;;;;;;;1999.90;999.90;;;;;;;;;;4983654;28;20068;-87
2021/11/24 09:35:29;;;;;;;1999.90;999.90;;;;;;;;;;4983557;28;20065;-90
2021/11/24 09:37:55;;;;;;;1999.90;999.90;;;;;;;;;;4983891;28;20029;-90
2021/11/24 09:40:21;;;;;;;1999.90;999.90;;;;;;;;;;4974921;28;20500;-90
2021/11/24 09:42:47;;;;;;;1999.90;999.90;;;;;;;;;;4981399;28;20044;-89
2021/11/24 09:45:16;;;;;;;1999.90;999.90;;;;;;;;;;4981625;28;20041;-90
2021/11/24 09:47:45;;;;;;;1999.90;999.90;;;;;;;;;;4981964;28;20567;-90
2021/11/24 09:50:12;;;;;;;1999.90;999.90;;;;;;;;;;4981608;28;20452;-87
2021/11/24 09:52:38;;;;;;;1999.90;999.90;;;;;;;;;;4981239;28;20117;-89
2021/11/24 09:55:05;;;;;;;1999.90;999.90;;;;;;;;;;4981094;28;20026;-89
2021/11/24 09:57:31;;;;;;;1999.90;999.90;;;;;;;;;;4981440;28;20399;-90
2021/11/24 10:00:00;;;;;;;1999.90;999.90;;;;;;;;;;4981360;28;20033;-89
2021/11/24 10:02:25;;;;;;;1999.90;999.90;;;;;;;;;;4981746;28;20026;-89
2021/11/24 10:04:52;;;;;;;1999.90;999.90;;;;;;;;;;4980519;28;20054;-91
2021/11/24 10:07:19;;;;;;;1999.90;999.90;;;;;;;;;;4984784;28;20025;-90
2021/11/24 10:09:45;;;;;;;1999.90;999.90;;;;;;;;;;4984028;28;20052;-88
2021/11/24 10:12:11;;;;;;;1999.90;999.90;;;;;;;;;;4984132;28;20120;-92
2021/11/24 10:14:38;;;;;;;1999.90;999.90;;;;;;;;;;5000347;28;20041;-90
2021/11/24 10:17:09;;;;;;;1999.90;999.90;;;;;;;;;;4999955;28;20033;-88
2021/11/24 10:19:38;;;;;;;1999.90;999.90;;;;;;;;;;4983639;28;20037;-93
2021/11/24 10:22:11;;;;;;;1999.90;999.90;;;;;;;;;;4983998;28;20061;-89
2021/11/24 10:24:42;;;;;;;1999.90;999.90;;;;;;;;;;5000793;28;20039;-88
2021/11/24 10:27:10;;;;;;;1999.90;999.90;;;;;;;;;;4999733;28;20044;-91
2021/11/24 10:29:36;;;;;;;1999.90;999.90;;;;;;;;;;4999873;28;20128;-86
2021/11/24 10:32:10;;;;;;;1999.90;999.90;;;;;;;;;;4984502;28;20035;-89
2021/11/24 10:34:39;;;;;;;1999.90;999.90;;;;;;;;;;4983995;28;20104;-87
2021/11/24 10:37:12;;;;;;;1999.90;999.90;;;;;;;;;;4982991;28;20025;-89
2021/11/24 10:39:42;;;;;;;1999.90;999.90;;;;;;;;;;5016129;28;20057;-91
2021/11/24 10:42:13;;;;;;;1999.90;999.90;;;;;;;;;;4983756;28;20033;-88
2021/11/24 10:44:39;;;;;;;1999.90;999.90;;;;;;;;;;5000306;28;20112;-87
2021/11/24 10:47:07;;;;;;;1999.90;999.90;;;;;;;;;;4983009;28;20037;-88
2021/11/24 10:49:43;;;;;;;1999.90;999.90;;;;;;;;;;4983499;28;20045;-89
2021/11/24 10:52:17;;;;;;;1999.90;999.90;;;;;;;;;;5000303;28;20026;-89
2021/11/24 10:55:02;;;;;;;1999.90;999.90;;;;;;;;;;5015802;28;20095;-89
2021/11/24 10:57:29;;;;;;;1999.90;999.90;;;;;;;;;;4999406;28;20033;-88
2021/11/24 11:00:08;;;;;;;1999.90;999.90;;;;;;;;;;4983367;28;20120;-90
2021/11/24 11:02:36;;;;;;;1999.90;999.90;;;;;;;;;;4983328;28;20025;-88
2021/11/24 11:05:23;;;;;;;1999.90;999.90;;;;;;;;;;4982830;28;20112;-89
2021/11/24 11:07:49;;;;;;;1999.90;999.90;;;;;;;;;;4980619;28;20047;-88
2021/11/24 11:10:19;;;;;;;1999.90;999.90;;;;;;;;;;4995682;28;20037;-88
2021/11/24 11:12:58;;;;;;;1999.90;999.90;;;;;;;;;;5012272;28;20559;-88
2021/11/24 11:15:27;;;;;;;1999.90;999.90;;;;;;;;;;4995736;28;20038;-88
2021/11/24 11:17:54;;;;;;;1999.90;999.90;;;;;;;;;;4995350;28;20038;-88
2021/11/24 11:20:23;;;;;;;1999.90;999.90;;;;;;;;;;4995122;28;20084;-87
2021/11/24 11:23:15;;;;;;;1999.90;999.90;;;;;;;;;;4995261;28;20033;-87
2021/11/24 11:25:47;;;;;;;1999.90;999.90;;;;;;;;;;4997770;28;20029;-89
2021/11/24 11:28:12;;;;;;;1999.90;999.90;;;;;;;;;;4995522;28;20046;-88
2021/11/24 11:30:41;;;;;;;1999.90;999.90;;;;;;;;;;4995531;28;20072;-89
2021/11/24 11:33:07;;;;;;;1999.90;999.90;;;;;;;;;;4995016;28;20100;-90
2021/11/24 11:35:33;;;;;;;1999.90;999.90;;;;;;;;;;4995317;28;20056;-86
2021/11/24 11:37:59;;;;;;;1999.90;999.90;;;;;;;;;;5011214;28;20117;-87
2021/11/24 11:40:25;;;;;;;1999.90;999.90;;;;;;;;;;5010806;28;20128;-84
2021/11/24 11:42:51;;;;;;;1999.90;999.90;;;;;;;;;;4993842;28;20382;-84
2021/11/24 11:45:17;;;;;;;1999.90;999.90;;;;;;;;;;4994858;28;20048;-84
2021/11/24 11:47:42;;;;;;;1999.90;999.90;;;;;;;;;;5010494;28;20583;-86
2021/11/24 11:50:08;;;;;;;1999.90;999.90;;;;;;;;;;5011094;28;20045;-86
2021/11/24 11:52:34;;;;;;;1999.90;999.90;;;;;;;;;;4994786;28;20026;-85
2021/11/24 11:55:20;;;;;;;1999.90;999.90;;;;;;;;;;5027973;28;20037;-91
2021/11/24 11:57:48;;;;;;;1999.90;999.90;;;;;;;;;;4995659;28;20064;-89
2021/11/24 12:00:17;;;;;;;1999.90;999.90;;;;;;;;;;4995238;28;20033;-92
2021/11/24 12:02:50;;;;;;;1999.90;999.90;;;;;;;;;;4994830;28;20419;-89
2021/11/24 12:05:16;;;;;;;1999.90;999.90;;;;;;;;;;4987225;28;20128;-89
2021/11/24 12:08:04;;;;;;;1999.90;999.90;;;;;;;;;;4989747;28;20033;-89
2021/11/24 12:11:00;;;;;;;1999.90;999.90;;;;;;;;;;4978395;28;20033;-88
2021/11/24 12:13:32;;;;;;;1999.90;999.90;;;;;;;;;;4990554;28;20053;-87
2021/11/24 12:15:58;;;;;;;1999.90;999.90;;;;;;;;;;4981627;28;20591;-88
2021/11/24 12:18:28;;;;;;;1999.90;999.90;;;;;;;;;;4982697;28;20056;-93
2021/11/24 12:20:54;;;;;;;1999.90;999.90;;;;;;;;;;5015203;28;20033;-92
2021/11/24 12:23:24;;;;;;;1999.90;999.90;;;;;;;;;;4998801;28;20041;-92
2021/11/24 12:25:55;;;;;;;1999.90;999.90;;;;;;;;;;4998645;28;20069;-89
2021/11/24 12:28:23;;;;;;;1999.90;999.90;;;;;;;;;;4997974;28;20414;-86
2021/11/24 12:30:50;;;;;;;1999.90;999.90;;;;;;;;;;4997621;28;20088;-87
2021/11/24 12:33:27;;;;;;;1999.90;999.90;;;;;;;;;;4981511;28;20499;-88
2021/11/24 12:35:57;;;;;;;1999.90;999.90;;;;;;;;;;4983123;28;20630;-88
2021/11/24 12:38:41;;;;;;;1999.90;999.90;;;;;;;;;;5014792;28;20045;-88
2021/11/24 12:41:10;;;;;;;1999.90;999.90;;;;;;;;;;4998269;28;20392;-88
2021/11/24 12:43:41;;;;;;;1999.90;999.90;;;;;;;;;;4998122;28;20034;-88
2021/11/24 12:46:15;;;;;;;1999.90;999.90;;;;;;;;;;4998265;28;20068;-88
2021/11/24 12:48:45;;;;;;;1999.90;999.90;;;;;;;;;;4998490;28;20412;-89
2021/11/24 12:51:18;;;;;;;1999.90;999.90;;;;;;;;;;5014619;28;20053;-88
2021/11/24 12:54:15;;;;;;;1999.90;999.90;;;;;;;;;;4982226;28;20079;-89
2021/11/24 12:56:55;;;;;;;1999.90;999.90;;;;;;;;;;5014172;28;20096;-92
2021/11/24 12:59:27;;;;;;;1999.90;999.90;;;;;;;;;;4974897;28;20145;-92
2021/11/24 13:01:59;;;;;;;1999.90;999.90;;;;;;;;;;5014683;28;20480;-91
2021/11/24 13:04:39;;;;;;;1999.90;999.90;;;;;;;;;;4998554;28;20524;-90
2021/11/24 13:07:21;;;;;;;1999.90;999.90;;;;;;;;;;5002124;28;20128;-91
2021/11/24 13:09:47;;;;;;;;;;;;;;;;;;4985454;28;20030;-92
2021/11/24 13:12:17;;;;;;;1999.90;999.90;;;;;;;;;;5001116;28;20004;-93
2021/11/24 13:14:58;;;;;;;1999.90;999.90;;;;;;;;;;4998193;28;20095;-93
2021/11/24 13:17:33;;;;;;;1999.90;999.90;;;;;;;;;;4998714;28;20061;-92
2021/11/24 13:20:08;;;;;;;1999.90;999.90;;;;;;;;;;4983095;28;20048;-93
2021/11/24 13:22:41;;;;;;;1999.90;999.90;;;;;;;;;;4998710;28;20041;-91
2021/11/24 13:25:12;;;;;;;1999.90;999.90;;;;;;;;;;5010952;28;20039;-93
2021/11/24 13:27:50;;;;;;;1999.90;999.90;;;;;;;;;;4993616;28;20047;-92
2021/11/24 13:30:38;;;;;;;1999.90;999.90;;;;;;;;;;5005929;28;20568;-89
2021/11/24 13:33:15;;;;;;;1999.90;999.90;;;;;;;;;;4988819;28;20030;-90
2021/11/24 13:35:43;;;;;;;1999.90;999.90;;;;;;;;;;4985993;28;20415;-90
2021/11/24 13:38:19;;;;;;;1999.90;999.90;;;;;;;;;;5001223;28;20625;-89
2021/11/24 13:40:53;;;;;;;1999.90;999.90;;;;;;;;;;5001195;28;20038;-89
2021/11/24 13:43:58;;;;;;;1999.90;999.90;;;;;;;;;;5009462;28;20041;-89
2021/11/24 13:46:23;;;;;;;1999.90;999.90;;;;;;;;;;4997136;28;20063;-88
2021/11/24 13:49:09;;;;;;;1999.90;999.90;;;;;;;;;;4993215;28;20030;-91